Alpena, Michigan
Current Conditions -  °F | °C
As of 12:54 PM on Friday 19 Dec 2014 (Local Time) from KAPN Reporting Station
Scattered Clouds Scattered Clouds  
Wind Chill: 20°   Ceiling: Unl
Heat Index: 27°   Visibility: 10mi
Dew Point: 19°   Wind: 6mph
Humidity: 72%   Direction: 350°N
Pressure: 30.25"   Gusts: NA
Location:  45.06°N, 83.44°W
Report Text: KAPN 191754Z AUTO 35005KT 10SM SCT016 M03/M07 A3025 RMK AO2 SLP257 I6000 T10281072 11028 21106 58012
Loading
Personal Weather Stations






























Interactive Weather Map New forecast layout! Learn more

10-Day Weather Forecast

Advertisements
Track Severe Weather on mobile